createdAt,value
2019-03-19T00:01:40.549Z,100830.06
2019-03-19T00:04:12.817Z,100833.81
2019-03-19T00:06:42.968Z,100832.64
2019-03-19T00:09:12.532Z,100830.66
2019-03-19T00:11:42.855Z,100840.27
2019-03-19T00:14:12.548Z,100846.23
2019-03-19T00:16:43.322Z,100848.34
2019-03-19T00:19:12.749Z,100857.53
2019-03-19T00:21:42.255Z,100868.08
2019-03-19T00:27:17.228Z,100867.30
2019-03-19T00:29:48.099Z,100873.67
2019-03-19T00:32:18.124Z,100877.52
2019-03-19T00:34:47.765Z,100871.70
2019-03-19T00:37:17.269Z,100875.38
2019-03-19T00:39:47.009Z,100872.39
2019-03-19T00:42:16.598Z,100876.90
2019-03-19T00:44:47.110Z,100880.20
2019-03-19T00:47:16.574Z,100884.03
2019-03-19T00:49:46.129Z,100891.33
2019-03-19T00:52:15.980Z,100885.18
2019-03-19T00:54:46.905Z,100888.11
2019-03-19T00:57:16.409Z,100889.11
2019-03-19T00:59:46.518Z,100884.08
2019-03-19T01:02:16.438Z,100877.77
2019-03-19T01:04:45.891Z,100882.61
2019-03-19T01:07:15.959Z,100878.87
2019-03-19T01:09:45.431Z,100882.45
2019-03-19T01:12:14.957Z,100875.98
2019-03-19T01:14:44.950Z,100882.37
2019-03-19T01:17:14.357Z,100885.40
2019-03-19T01:19:43.849Z,100889.74
2019-03-19T01:22:13.287Z,100898.95
2019-03-19T01:24:42.936Z,100894.47
2019-03-19T01:27:12.331Z,100901.64
2019-03-19T01:29:41.830Z,100897.97
2019-03-19T01:32:11.283Z,100907.64
2019-03-19T01:34:40.886Z,100911.12
2019-03-19T01:37:10.435Z,100909.46
2019-03-19T01:39:39.893Z,100916.45
2019-03-19T01:42:09.373Z,100847.49
2019-03-19T01:44:38.907Z,100910.12
2019-03-19T01:47:08.429Z,100905.47
2019-03-19T01:49:37.842Z,100912.62
2019-03-19T01:52:07.327Z,100923.14
2019-03-19T01:54:36.540Z,100925.80
2019-03-19T01:57:05.779Z,100926.78
2019-03-19T01:59:35.310Z,100928.12
2019-03-19T02:02:04.827Z,100930.12
2019-03-19T02:04:34.460Z,100935.28
2019-03-19T02:07:03.717Z,100930.27
2019-03-19T02:09:33.280Z,100942.61
2019-03-19T02:12:02.522Z,100942.09
2019-03-19T02:14:32.105Z,100947.77
2019-03-19T02:17:01.326Z,100944.75
2019-03-19T02:19:30.859Z,100949.42
2019-03-19T02:22:00.117Z,100955.41
2019-03-19T02:24:29.675Z,100962.08
2019-03-19T02:26:58.924Z,100964.73
2019-03-19T02:29:28.189Z,100959.06
2019-03-19T02:31:57.434Z,100961.67
2019-03-19T02:34:26.759Z,100966.02
2019-03-19T02:36:56.030Z,100976.33
2019-03-19T02:39:25.297Z,100974.52
2019-03-19T02:41:54.617Z,100978.69
2019-03-19T02:44:24.150Z,100978.99
2019-03-19T02:46:53.688Z,100984.02
2019-03-19T02:49:22.953Z,100990.36
2019-03-19T02:51:52.263Z,101004.36
2019-03-19T02:54:21.479Z,101005.51
2019-03-19T02:56:50.784Z,101007.69
2019-03-19T02:59:20.104Z,101009.69
2019-03-19T03:01:49.371Z,101007.69
2019-03-19T03:04:18.583Z,101012.34
2019-03-19T03:06:47.833Z,101008.83
2019-03-19T03:09:17.282Z,101007.97
2019-03-19T03:11:46.569Z,101015.77
2019-03-19T03:14:15.812Z,101025.91
2019-03-19T03:16:45.100Z,101035.77
2019-03-19T03:19:14.344Z,101038.45
2019-03-19T03:21:43.882Z,101045.09
2019-03-19T03:24:13.126Z,101049.57
2019-03-19T03:26:48.204Z,101050.91
2019-03-19T03:29:13.366Z,101056.53
2019-03-19T03:31:42.686Z,101061.36
2019-03-19T03:34:11.945Z,101066.70
2019-03-19T03:36:41.161Z,101070.20
2019-03-19T03:39:10.400Z,101082.55
2019-03-19T03:41:39.667Z,101076.52
2019-03-19T03:44:08.930Z,101077.84
2019-03-19T03:46:38.230Z,101082.84
2019-03-19T03:49:07.529Z,101081.16
2019-03-19T03:51:36.761Z,101078.84
2019-03-19T03:54:06.079Z,101082.12
2019-03-19T03:56:35.624Z,101081.11
2019-03-19T03:59:04.891Z,101082.55
2019-03-19T04:01:34.490Z,101086.75
2019-03-19T04:04:03.717Z,101088.27
2019-03-19T04:06:33.268Z,101096.34
2019-03-19T04:09:02.556Z,101105.82
2019-03-19T04:11:31.778Z,101109.34
2019-03-19T04:14:01.029Z,101112.70
2019-03-19T04:16:30.261Z,101109.16
2019-03-19T04:18:59.490Z,101114.27
2019-03-19T04:21:28.792Z,101121.12
2019-03-19T04:23:58.322Z,101115.81
2019-03-19T04:26:27.648Z,101124.33
2019-03-19T04:28:57.196Z,101126.30
2019-03-19T04:31:26.432Z,101124.08
2019-03-19T04:33:55.698Z,101133.86
2019-03-19T04:36:24.925Z,101128.84
2019-03-19T04:38:54.247Z,101130.36
2019-03-19T04:41:23.793Z,101140.54
2019-03-19T04:43:53.069Z,101135.59
2019-03-19T04:46:22.541Z,101129.42
2019-03-19T04:48:52.098Z,101129.59
2019-03-19T04:51:21.592Z,101131.25
2019-03-19T04:53:50.972Z,101134.23
2019-03-19T04:56:20.197Z,101126.34
2019-03-19T04:58:49.440Z,101130.84
2019-03-19T05:01:18.951Z,101132.80
2019-03-19T05:03:48.215Z,101130.14
2019-03-19T05:06:17.747Z,101137.15
2019-03-19T05:08:47.286Z,101140.22
2019-03-19T05:11:16.509Z,101141.98
2019-03-19T05:19:29.620Z,101146.33
2019-03-19T05:25:13.167Z,101157.13
2019-03-19T05:27:42.870Z,101149.70
2019-03-19T05:30:12.943Z,101152.14
2019-03-19T05:32:42.445Z,101154.31
2019-03-19T05:35:12.254Z,101159.95
2019-03-19T05:37:41.493Z,101157.00
2019-03-19T05:40:11.240Z,101159.30
2019-03-19T05:42:40.746Z,101163.91
2019-03-19T05:45:10.943Z,101166.94
2019-03-19T05:47:40.658Z,101162.59
2019-03-19T05:50:11.541Z,101169.47
2019-03-19T05:52:40.761Z,101177.48
2019-03-19T05:55:10.063Z,101181.66
2019-03-19T05:57:48.727Z,101180.37
2019-03-19T06:00:12.055Z,101176.98
2019-03-19T06:02:41.235Z,101183.67
2019-03-19T06:05:11.630Z,101187.40
2019-03-19T06:07:40.879Z,101188.41
2019-03-19T06:10:10.605Z,101196.20
2019-03-19T06:12:39.827Z,101199.24
2019-03-19T06:15:09.305Z,101192.59
2019-03-19T06:17:38.574Z,101182.81
2019-03-19T06:20:08.644Z,101193.03
2019-03-19T06:22:37.922Z,101191.56
2019-03-19T06:25:08.127Z,101208.62
2019-03-19T06:27:37.394Z,101205.09
2019-03-19T06:30:09.104Z,101214.94
2019-03-19T06:32:38.399Z,101217.23
2019-03-19T06:35:08.961Z,101220.88
2019-03-19T06:37:38.211Z,101226.56
2019-03-19T06:40:08.678Z,101230.11
2019-03-19T06:42:37.988Z,101239.64
2019-03-19T06:45:08.577Z,101227.00
2019-03-19T06:47:38.115Z,101233.75
2019-03-19T06:50:08.663Z,101237.10
2019-03-19T06:52:37.914Z,101237.48
2019-03-19T06:55:08.969Z,101243.86
2019-03-19T06:57:39.348Z,101259.45
2019-03-19T07:00:12.831Z,101264.81
2019-03-19T07:02:42.625Z,101261.54
2019-03-19T07:05:12.164Z,101267.92
2019-03-19T07:07:41.757Z,101269.97
2019-03-19T07:10:12.066Z,101285.36
2019-03-19T07:12:41.280Z,101291.20
2019-03-19T07:15:12.283Z,101296.25
2019-03-19T07:17:41.798Z,101304.92
2019-03-19T07:20:12.869Z,101299.08
2019-03-19T07:22:42.434Z,101306.93
2019-03-19T07:28:07.467Z,101318.28
2019-03-19T07:30:37.231Z,101312.06
2019-03-19T07:33:06.475Z,101313.20
2019-03-19T07:35:35.997Z,101308.47
2019-03-19T07:38:05.231Z,101303.58
2019-03-19T07:40:34.799Z,101312.55
2019-03-19T07:43:04.042Z,101316.02
2019-03-19T07:45:33.338Z,101328.00
2019-03-19T07:48:02.633Z,101324.11
2019-03-19T07:50:32.143Z,101317.38
2019-03-19T07:53:01.393Z,101317.41
2019-03-19T07:55:30.663Z,101317.23
2019-03-19T07:58:00.141Z,101316.53
2019-03-19T08:00:29.401Z,101302.69
2019-03-19T08:02:58.917Z,101295.20
2019-03-19T08:05:32.919Z,101296.55
2019-03-19T08:07:59.514Z,101295.60
2019-03-19T08:10:28.773Z,101283.99
2019-03-19T08:12:58.294Z,101287.95
2019-03-19T08:15:27.829Z,101279.84
2019-03-19T08:17:57.328Z,101255.58
2019-03-19T08:20:45.534Z,101231.31
2019-03-19T08:23:14.791Z,101222.69
2019-03-19T08:25:44.062Z,101198.43
2019-03-19T08:28:13.591Z,101198.11
2019-03-19T08:30:42.822Z,101192.92
2019-03-19T08:33:12.067Z,101186.94
2019-03-19T08:35:41.566Z,101185.09
2019-03-19T08:38:10.813Z,101190.39
2019-03-19T08:40:40.050Z,101181.63
2019-03-19T08:43:09.596Z,101184.12
2019-03-19T08:45:38.836Z,101185.52
2019-03-19T08:48:08.100Z,101182.08
2019-03-19T08:50:37.337Z,101175.30
2019-03-19T08:53:06.575Z,101183.84
2019-03-19T08:55:35.819Z,101192.75
2019-03-19T08:58:05.440Z,101203.94
2019-03-19T09:00:35.063Z,101205.15
2019-03-19T09:03:04.455Z,101199.81
2019-03-19T09:05:33.703Z,101198.34
2019-03-19T09:08:22.549Z,101196.27
2019-03-19T09:11:04.366Z,101195.44
2019-03-19T09:13:33.983Z,101205.48
2019-03-19T09:16:03.222Z,101208.34
2019-03-19T09:18:32.493Z,101206.73
2019-03-19T09:21:02.004Z,101217.56
2019-03-19T09:23:33.259Z,101223.95
2019-03-19T09:26:02.584Z,101237.88
2019-03-19T09:28:32.109Z,101262.23
2019-03-19T09:31:01.323Z,101271.75
2019-03-19T09:33:30.852Z,101272.12
2019-03-19T09:36:00.332Z,101282.42
2019-03-19T09:38:29.595Z,101296.84
2019-03-19T09:40:58.868Z,101316.36
2019-03-19T09:43:28.165Z,101332.73
2019-03-19T09:45:57.768Z,101339.39
2019-03-19T09:48:28.278Z,101338.45
2019-03-19T09:50:58.352Z,101345.39
2019-03-19T09:53:27.602Z,101349.14
2019-03-19T09:55:56.863Z,101362.41
2019-03-19T09:58:26.094Z,101363.02
2019-03-19T10:00:55.711Z,101361.73
2019-03-19T10:03:25.260Z,101362.31
2019-03-19T10:05:54.817Z,101366.88
2019-03-19T10:08:24.119Z,101367.11
2019-03-19T10:10:53.398Z,101374.20
2019-03-19T10:13:22.905Z,101382.53
2019-03-19T10:15:52.522Z,101376.85
2019-03-19T10:18:21.803Z,101379.06
2019-03-19T10:20:51.044Z,101382.27
2019-03-19T10:23:20.337Z,101387.20
2019-03-19T10:25:50.124Z,101384.44
2019-03-19T10:28:19.353Z,101387.46
2019-03-19T10:30:48.617Z,101390.14
2019-03-19T10:33:18.118Z,101387.24
2019-03-19T10:35:47.444Z,101391.55
2019-03-19T10:38:16.682Z,101395.10
2019-03-19T10:40:45.913Z,101398.74
2019-03-19T10:43:15.158Z,101398.22
2019-03-19T10:45:44.384Z,101393.63
2019-03-19T10:48:13.965Z,101392.29
2019-03-19T10:50:43.624Z,101396.78
2019-03-19T10:53:13.117Z,101398.12
2019-03-19T10:55:42.416Z,101394.11
2019-03-19T10:58:11.660Z,101400.02
2019-03-19T11:00:40.971Z,101403.62
2019-03-19T11:03:10.195Z,101393.23
2019-03-19T11:05:39.444Z,101397.32
2019-03-19T11:08:09.123Z,101402.31
2019-03-19T11:10:38.664Z,101406.48
2019-03-19T11:13:08.451Z,101415.73
2019-03-19T11:15:37.698Z,101412.55
2019-03-19T11:18:07.048Z,101410.69
2019-03-19T11:20:36.310Z,101409.95
2019-03-19T11:23:05.651Z,101418.38
2019-03-19T11:25:34.974Z,101416.92
2019-03-19T11:28:04.476Z,101419.39
2019-03-19T11:30:33.721Z,101422.52
2019-03-19T11:33:02.950Z,101419.20
2019-03-19T11:35:32.272Z,101421.39
2019-03-19T11:38:01.498Z,101414.34
2019-03-19T11:40:30.830Z,101416.48
2019-03-19T11:43:00.398Z,101410.80
2019-03-19T11:45:29.664Z,101411.62
2019-03-19T11:47:59.171Z,101408.50
2019-03-19T11:50:29.085Z,101405.88
2019-03-19T11:52:58.401Z,101399.65
2019-03-19T11:55:27.967Z,101402.23
2019-03-19T11:57:57.701Z,101396.71
2019-03-19T12:00:34.055Z,101401.88
2019-03-19T12:03:12.632Z,101398.39
2019-03-19T12:05:34.260Z,101405.52
2019-03-19T12:08:03.495Z,101400.50
2019-03-19T12:10:32.754Z,101405.41
2019-03-19T12:13:01.977Z,101402.91
2019-03-19T12:15:31.224Z,101396.64
2019-03-19T12:18:00.447Z,101401.41
2019-03-19T12:20:29.699Z,101401.69
2019-03-19T12:22:58.917Z,101402.47
2019-03-19T12:25:28.187Z,101399.64
2019-03-19T12:27:57.433Z,101399.09
2019-03-19T12:30:26.746Z,101400.83
2019-03-19T12:32:56.065Z,101403.61
2019-03-19T12:35:25.322Z,101395.55
2019-03-19T12:37:54.747Z,101390.72
2019-03-19T12:40:24.227Z,101391.38
2019-03-19T12:45:51.373Z,101390.02
2019-03-19T12:48:20.974Z,101388.50
2019-03-19T12:50:50.454Z,101387.08
2019-03-19T12:53:19.813Z,101389.05
2019-03-19T12:55:49.355Z,101376.77
2019-03-19T12:58:18.703Z,101380.45
2019-03-19T13:00:47.962Z,101376.86
2019-03-19T13:03:17.440Z,101380.12
2019-03-19T13:05:47.012Z,101384.12
2019-03-19T13:10:55.429Z,101381.84
2019-03-19T13:13:46.943Z,101378.45
2019-03-19T13:16:16.574Z,101394.13
2019-03-19T13:18:47.216Z,101386.11
2019-03-19T13:21:19.636Z,101391.55
2019-03-19T13:23:50.868Z,101383.98
2019-03-19T13:26:40.817Z,101383.41
2019-03-19T13:29:10.683Z,101397.56
2019-03-19T13:31:40.809Z,101401.86
2019-03-19T13:34:17.764Z,101400.45
2019-03-19T13:36:47.086Z,101398.45
2019-03-19T13:39:16.642Z,101396.42
2019-03-19T13:41:45.945Z,101398.20
2019-03-19T13:44:15.277Z,101395.94
2019-03-19T13:46:44.577Z,101401.72
2019-03-19T13:49:33.236Z,101397.73
2019-03-19T13:52:02.458Z,101401.49
2019-03-19T13:54:31.972Z,101400.08
2019-03-19T13:57:01.197Z,101402.44
2019-03-19T13:59:30.818Z,101402.64
2019-03-19T14:02:00.122Z,101406.45
2019-03-19T14:04:29.478Z,101404.72
2019-03-19T14:06:58.742Z,101403.42
2019-03-19T14:09:27.996Z,101396.94
2019-03-19T14:11:57.250Z,101405.11
2019-03-19T14:14:26.826Z,101402.92
2019-03-19T14:16:56.344Z,101403.84
2019-03-19T14:19:25.603Z,101399.14
2019-03-19T14:21:54.849Z,101398.91
2019-03-19T14:24:24.294Z,101402.45
2019-03-19T14:26:53.576Z,101395.67
2019-03-19T14:29:23.150Z,101403.98
2019-03-19T14:31:52.374Z,101410.78
2019-03-19T14:34:21.723Z,101399.21
2019-03-19T14:36:50.965Z,101399.13
2019-03-19T14:39:20.229Z,101399.20
2019-03-19T14:41:49.512Z,101403.86
2019-03-19T14:44:18.999Z,101398.91
2019-03-19T14:46:48.286Z,101394.45
2019-03-19T14:49:17.877Z,101396.14
2019-03-19T14:51:47.382Z,101404.72
2019-03-19T14:54:17.347Z,101406.61
2019-03-19T14:56:46.574Z,101405.36
2019-03-19T14:59:16.187Z,101395.07
2019-03-19T15:01:45.453Z,101400.52
2019-03-19T15:04:14.981Z,101393.33
2019-03-19T15:06:44.538Z,101400.13
2019-03-19T15:09:13.901Z,101402.82
2019-03-19T15:11:43.400Z,101410.83
2019-03-19T15:14:31.742Z,101407.45
2019-03-19T15:17:05.104Z,101403.73
2019-03-19T15:19:31.941Z,101401.45
2019-03-19T15:22:31.946Z,101399.61
2019-03-19T15:24:51.972Z,101399.61
2019-03-19T15:27:21.259Z,101364.41
2019-03-19T15:29:50.852Z,101390.06
2019-03-19T15:32:20.135Z,101399.20
2019-03-19T15:34:49.721Z,101400.42
2019-03-19T15:37:19.012Z,101400.88
2019-03-19T15:39:48.297Z,101401.71
2019-03-19T15:42:18.063Z,101399.97
2019-03-19T15:47:42.574Z,101396.45
2019-03-19T15:50:13.839Z,101379.60
2019-03-19T15:52:43.075Z,101398.27
2019-03-19T15:58:08.092Z,101402.50
2019-03-19T16:00:37.642Z,101395.53
2019-03-19T16:03:06.901Z,101396.28
2019-03-19T16:05:36.152Z,101399.73
2019-03-19T16:08:05.673Z,101406.98
2019-03-19T16:10:35.198Z,101405.17
2019-03-19T16:13:04.746Z,101408.05
2019-03-19T16:15:34.066Z,101411.73
2019-03-19T16:18:03.722Z,101407.68
2019-03-19T16:20:33.376Z,101407.11
2019-03-19T16:23:02.642Z,101411.08
2019-03-19T16:25:31.995Z,101407.81
2019-03-19T16:28:01.300Z,101410.03
2019-03-19T16:30:30.627Z,101415.83
2019-03-19T16:32:59.978Z,101418.09
2019-03-19T16:35:29.314Z,101419.16
2019-03-19T16:37:58.582Z,101417.32
2019-03-19T16:40:27.917Z,101415.66
2019-03-19T16:42:57.341Z,101418.30
2019-03-19T16:45:26.705Z,101423.35
2019-03-19T16:47:56.043Z,101422.95
2019-03-19T16:50:25.649Z,101420.13
2019-03-19T16:52:54.903Z,101429.16
2019-03-19T16:55:24.223Z,101426.19
2019-03-19T16:57:53.453Z,101428.06
2019-03-19T17:00:22.834Z,101425.78
2019-03-19T17:02:52.135Z,101429.99
2019-03-19T17:05:21.480Z,101431.91
2019-03-19T17:07:51.082Z,101439.73
2019-03-19T17:10:20.431Z,101438.83
2019-03-19T17:12:49.784Z,101433.23
2019-03-19T17:15:19.085Z,101439.26
2019-03-19T17:17:48.332Z,101438.73
2019-03-19T17:20:17.638Z,101443.47
2019-03-19T17:22:47.598Z,101442.95
2019-03-19T17:25:17.632Z,101444.36
2019-03-19T17:27:47.243Z,101447.81
2019-03-19T17:30:35.719Z,101450.85
2019-03-19T17:33:05.050Z,101453.23
2019-03-19T17:35:34.913Z,101454.44
2019-03-19T17:38:04.347Z,101456.02
2019-03-19T17:40:41.227Z,101464.44
2019-03-19T17:43:04.701Z,101460.70
2019-03-19T17:45:33.940Z,101464.27
2019-03-19T17:48:03.191Z,101466.78
2019-03-19T17:50:32.550Z,101463.13
2019-03-19T17:53:01.831Z,101463.89
2019-03-19T17:55:31.420Z,101460.79
2019-03-19T17:58:00.874Z,101457.98
2019-03-19T18:00:30.462Z,101457.07
2019-03-19T18:03:00.018Z,101450.50
2019-03-19T18:05:29.266Z,101445.09
2019-03-19T18:07:58.568Z,101448.63
2019-03-19T18:10:27.876Z,101447.69
2019-03-19T18:13:16.187Z,101446.84
2019-03-19T18:15:45.409Z,101448.77
2019-03-19T18:18:33.756Z,101440.63
2019-03-19T18:21:03.519Z,101444.20
2019-03-19T18:23:33.029Z,101443.86
2019-03-19T18:26:02.307Z,101442.25
2019-03-19T18:28:32.183Z,101443.02
2019-03-19T18:31:02.161Z,101444.42
2019-03-19T18:33:50.450Z,101437.34
2019-03-19T18:36:19.904Z,101435.12
2019-03-19T18:38:49.791Z,101428.10
2019-03-19T18:41:19.525Z,101430.94
2019-03-19T18:43:51.349Z,101427.64
2019-03-19T18:46:39.727Z,101428.28
2019-03-19T18:49:09.093Z,101426.72
2019-03-19T18:51:38.416Z,101430.34
2019-03-19T18:54:09.495Z,101421.45
2019-03-19T18:56:38.769Z,101421.11
2019-03-19T18:59:08.085Z,101423.33
2019-03-19T19:01:40.341Z,101419.59
2019-03-19T19:04:29.130Z,101420.06
2019-03-19T19:07:38.163Z,101419.55
2019-03-19T19:10:08.520Z,101414.28
2019-03-19T19:15:47.282Z,101414.44
2019-03-19T19:18:17.246Z,101413.13
2019-03-19T19:20:47.213Z,101418.08
2019-03-19T19:23:16.956Z,101416.80
2019-03-19T19:25:47.831Z,101391.50
2019-03-19T19:28:36.272Z,101414.58
2019-03-19T19:33:56.819Z,101419.48
2019-03-19T19:39:35.784Z,101401.65
2019-03-19T19:42:08.437Z,101422.44
2019-03-19T19:44:38.423Z,101428.39
2019-03-19T19:47:07.935Z,101427.19
2019-03-19T19:49:39.394Z,101432.85
2019-03-19T19:52:28.470Z,101435.09
2019-03-19T19:54:58.080Z,101436.97
2019-03-19T19:57:27.658Z,101440.64
2019-03-19T20:00:14.878Z,101441.00
2019-03-19T20:02:44.568Z,101445.45
2019-03-19T20:05:34.155Z,101448.84
2019-03-19T20:08:23.828Z,101448.20
2019-03-19T20:10:53.262Z,101452.00
2019-03-19T20:13:23.384Z,101458.67
2019-03-19T20:15:53.219Z,101466.53
2019-03-19T20:21:32.334Z,101472.80
2019-03-19T20:24:02.025Z,101473.84
2019-03-19T20:26:31.917Z,101475.44
2019-03-19T20:29:01.771Z,101484.19
2019-03-19T20:31:31.787Z,101494.78
2019-03-19T20:34:01.478Z,101495.97
2019-03-19T20:36:31.397Z,101501.77
2019-03-19T20:39:00.926Z,101499.09
2019-03-19T20:41:30.817Z,101501.81
2019-03-19T20:44:00.077Z,101505.92
2019-03-19T20:46:29.361Z,101517.66
2019-03-19T20:48:58.603Z,101514.16
2019-03-19T20:51:28.162Z,101513.13
2019-03-19T20:53:57.407Z,101522.34
2019-03-19T20:56:27.058Z,101526.52
2019-03-19T20:58:56.646Z,101536.14
2019-03-19T21:01:25.909Z,101530.81
2019-03-19T21:03:55.780Z,101536.87
2019-03-19T21:06:25.305Z,101535.18
2019-03-19T21:08:54.657Z,101542.89
2019-03-19T21:11:24.067Z,101546.27
2019-03-19T21:13:53.632Z,101546.17
2019-03-19T21:16:23.177Z,101552.63
2019-03-19T21:18:52.469Z,101551.62
2019-03-19T21:21:22.072Z,101546.45
2019-03-19T21:23:51.414Z,101555.59
2019-03-19T21:26:21.000Z,101552.89
2019-03-19T21:28:50.545Z,101554.08
2019-03-19T21:31:39.220Z,101554.78
2019-03-19T21:34:08.600Z,101562.52
2019-03-19T21:36:37.874Z,101570.73
2019-03-19T21:39:08.366Z,101575.08
2019-03-19T21:41:37.680Z,101583.64
2019-03-19T21:44:07.335Z,101588.53
2019-03-19T21:46:36.737Z,101578.44
2019-03-19T21:49:06.006Z,101585.86
2019-03-19T21:51:35.539Z,101594.40
2019-03-19T21:54:04.830Z,101594.91
2019-03-19T21:56:34.100Z,101599.94
2019-03-19T21:59:03.393Z,101599.13
2019-03-19T22:01:33.009Z,101597.62
2019-03-19T22:04:03.549Z,101598.63
2019-03-19T22:06:33.956Z,101598.95
2019-03-19T22:09:23.948Z,101603.33
2019-03-19T22:11:53.202Z,101616.72
2019-03-19T22:14:22.452Z,101609.52
2019-03-19T22:16:51.717Z,101611.35
2019-03-19T22:19:20.968Z,101609.70
2019-03-19T22:21:50.561Z,101607.86
2019-03-19T22:24:19.826Z,101614.72
2019-03-19T22:26:49.122Z,101614.57
2019-03-19T22:29:18.376Z,101618.91
2019-03-19T22:31:47.911Z,101614.37
2019-03-19T22:34:17.177Z,101618.07
2019-03-19T22:36:46.881Z,101613.03
2019-03-19T22:39:16.491Z,101611.20
2019-03-19T22:41:45.764Z,101613.72
2019-03-19T22:44:15.439Z,101617.38
2019-03-19T22:46:44.712Z,101595.79
2019-03-19T22:49:13.990Z,101617.03
2019-03-19T22:51:43.295Z,101620.70
2019-03-19T22:54:12.902Z,101611.01
2019-03-19T22:56:42.186Z,101612.34
2019-03-19T22:59:11.879Z,101608.47
2019-03-19T23:01:41.230Z,101610.66
2019-03-19T23:04:10.637Z,101614.32
2019-03-19T23:06:39.935Z,101625.38
2019-03-19T23:09:09.629Z,101625.38
2019-03-19T23:11:38.947Z,101630.20
2019-03-19T23:14:08.675Z,101628.38
2019-03-19T23:16:38.369Z,101576.44
2019-03-19T23:19:07.651Z,101626.68
2019-03-19T23:21:36.927Z,101629.36
2019-03-19T23:24:45.616Z,101626.00
2019-03-19T23:27:14.915Z,101636.70
2019-03-19T23:29:44.219Z,101602.17
2019-03-19T23:32:13.523Z,101636.34
2019-03-19T23:34:42.895Z,101641.69
2019-03-19T23:37:12.124Z,101641.02
2019-03-19T23:39:41.425Z,101635.98
2019-03-19T23:42:10.914Z,101644.37
2019-03-19T23:44:40.219Z,101634.98
2019-03-19T23:47:09.486Z,101634.98
2019-03-19T23:49:38.791Z,101635.12
2019-03-19T23:52:08.348Z,101629.45
2019-03-19T23:54:37.932Z,101638.28
2019-03-19T23:57:07.233Z,101632.25
2019-03-19T23:59:36.577Z,101633.05
